Time;durP1;ratioP1;P1;durP2;ratioP2;P2;SDS_P1;SDS_P2;PMS_P1;PMS_P2;Temp;Humidity;BMP_temperature;BMP_pressure;BME280_temperature;BME280_humidity;BME280_pressure;Samples;Min_cycle;Max_cycle;Signal;HPM_P1;HPM_P2
2022/09/28 00:00:40;;;;;;;13.32;3.60;;;21.40;65.20;;;;;;4967201;28;20398;-72
2022/09/28 00:03:06;;;;;;;11.20;3.20;;;21.40;65.20;;;;;;4961720;28;20050;-72
2022/09/28 00:05:32;;;;;;;10.32;4.00;;;21.40;65.50;;;;;;4975275;28;20053;-72
2022/09/28 00:07:57;;;;;;;14.85;3.60;;;21.40;65.40;;;;;;4974570;28;20419;-72
2022/09/28 00:10:26;;;;;;;12.27;3.50;;;21.40;65.60;;;;;;4974647;28;20038;-72
2022/09/28 00:12:54;;;;;;;11.57;3.22;;;21.40;65.50;;;;;;4974783;28;20395;-72
2022/09/28 00:15:20;;;;;;;12.40;3.85;;;21.40;65.50;;;;;;4960743;28;20364;-72
2022/09/28 00:17:46;;;;;;;9.13;2.88;;;21.40;65.60;;;;;;4973302;28;20404;-72
2022/09/28 00:20:13;;;;;;;10.40;3.22;;;21.40;65.70;;;;;;4974418;28;20061;-72
2022/09/28 00:22:39;;;;;;;7.47;3.17;;;21.40;65.70;;;;;;4971720;28;20050;-72
2022/09/28 00:25:05;;;;;;;15.68;2.90;;;21.40;65.70;;;;;;4970136;28;20069;-72
2022/09/28 00:27:31;;;;;;;13.55;3.30;;;21.40;65.80;;;;;;4974244;28;20077;-71
2022/09/28 00:29:57;;;;;;;8.55;3.15;;;21.40;65.80;;;;;;4972640;28;20027;-72
2022/09/28 00:32:23;;;;;;;9.13;2.90;;;21.40;65.90;;;;;;4973871;28;20039;-72
2022/09/28 00:34:50;;;;;;;12.63;3.20;;;21.40;66.50;;;;;;4985351;28;20030;-72
2022/09/28 00:37:18;;;;;;;16.15;3.35;;;21.40;65.80;;;;;;4969401;28;20042;-72
2022/09/28 00:39:45;;;;;;;8.95;2.90;;;21.40;65.80;;;;;;4969975;28;20069;-73
2022/09/28 00:42:20;;;;;;;12.77;3.47;;;21.40;65.70;;;;;;4948574;28;20128;-72
2022/09/28 00:44:48;;;;;;;8.77;3.00;;;21.40;65.80;;;;;;4955095;28;20038;-72
2022/09/28 00:47:36;;;;;;;6.45;2.78;;;21.40;65.70;;;;;;4982543;28;20127;-72
2022/09/28 00:50:26;;;;;;;8.65;2.90;;;21.40;65.90;;;;;;4976412;28;20476;-72
2022/09/28 00:53:05;;;;;;;10.13;3.20;;;21.40;65.50;;;;;;4981645;28;20025;-72
2022/09/28 00:55:57;;;;;;;9.07;3.22;;;21.40;65.50;;;;;;4972775;28;20030;-72
2022/09/28 00:58:30;;;;;;;9.30;2.90;;;21.40;65.90;;;;;;4955185;28;20041;-72
2022/09/28 01:00:57;;;;;;;9.52;3.17;;;21.40;65.80;;;;;;4974090;28;20031;-72
2022/09/28 01:03:25;;;;;;;9.60;3.60;;;21.40;65.70;;;;;;4980570;28;20373;-72
2022/09/28 01:05:52;;;;;;;8.95;2.85;;;21.40;65.50;;;;;;4951952;28;20031;-72
2022/09/28 01:08:20;;;;;;;11.05;3.22;;;21.40;65.50;;;;;;4972976;28;20070;-72
2022/09/28 01:10:47;;;;;;;9.07;3.25;;;21.40;65.80;;;;;;4941381;28;20078;-73
2022/09/28 01:13:19;;;;;;;6.13;2.60;;;21.40;65.60;;;;;;4976202;28;20113;-73
2022/09/28 01:15:53;;;;;;;7.97;2.67;;;21.40;65.50;;;;;;4979181;28;20098;-72
2022/09/28 01:18:23;;;;;;;11.68;3.05;;;21.40;65.50;;;;;;4970535;28;20062;-73
2022/09/28 01:20:54;;;;;;;7.60;2.83;;;21.40;65.50;;;;;;4972228;28;20030;-72
2022/09/28 01:23:45;;;;;;;8.35;2.75;;;21.40;65.60;;;;;;4972126;28;20027;-73
2022/09/28 01:26:42;;;;;;;10.60;3.45;;;21.40;65.50;;;;;;4954492;28;20034;-73
2022/09/28 01:29:29;;;;;;;10.05;2.90;;;21.40;65.40;;;;;;4967816;28;20033;-72
2022/09/28 01:32:33;;;;;;;7.60;3.10;;;21.40;65.80;;;;;;4966127;28;20027;-72
2022/09/28 01:35:13;;;;;;;8.65;3.08;;;21.40;65.90;;;;;;4966615;28;20035;-72
2022/09/28 01:38:26;;;;;;;8.43;3.30;;;21.40;66.20;;;;;;4971402;28;20290;-72
2022/09/28 01:40:53;;;;;;;8.05;2.58;;;21.40;66.00;;;;;;4893134;29;20477;-72
2022/09/28 01:43:33;;;;;;;8.50;2.80;;;21.40;66.20;;;;;;4956864;28;20074;-72
2022/09/28 01:46:06;;;;;;;9.95;2.92;;;21.40;66.20;;;;;;4964228;28;20038;-72
2022/09/28 01:48:45;;;;;;;8.95;2.70;;;21.40;66.30;;;;;;4972998;28;20467;-72
2022/09/28 01:51:20;;;;;;;6.47;2.60;;;21.50;66.20;;;;;;4972471;28;20530;-72
2022/09/28 01:53:51;;;;;;;9.00;2.80;;;21.40;66.10;;;;;;4933903;28;20554;-74
2022/09/28 01:56:26;;;;;;;6.18;2.63;;;21.40;66.30;;;;;;4955202;28;20057;-72
2022/09/28 01:59:02;;;;;;;10.35;3.00;;;21.50;66.20;;;;;;4940397;28;20035;-72
2022/09/28 02:01:47;;;;;;;9.23;3.00;;;21.50;66.00;;;;;;4979234;28;20027;-72
2022/09/28 02:04:21;;;;;;;11.00;2.97;;;21.50;65.90;;;;;;4979216;28;20089;-72
2022/09/28 02:07:05;;;;;;;15.95;2.60;;;21.40;65.90;;;;;;4955545;28;20070;-72
2022/09/28 02:09:37;;;;;;;9.20;2.70;;;21.40;65.90;;;;;;4951364;28;20038;-72
2022/09/28 02:12:12;;;;;;;10.93;2.67;;;21.40;66.30;;;;;;4962530;28;20058;-72
2022/09/28 02:14:41;;;;;;;10.60;3.03;;;21.40;66.30;;;;;;4970527;28;20149;-72
2022/09/28 02:17:08;;;;;;;8.07;2.67;;;21.40;66.40;;;;;;4955255;28;20031;-72
2022/09/28 02:19:35;;;;;;;7.88;2.95;;;21.40;66.60;;;;;;4972381;28;20545;-72
2022/09/28 02:22:13;;;;;;;8.63;3.05;;;21.40;66.40;;;;;;4971252;28;20027;-72
2022/09/28 02:24:38;;;;;;;12.15;2.92;;;21.30;66.30;;;;;;4971654;28;20113;-72
2022/09/28 02:27:14;;;;;;;7.03;2.75;;;21.40;66.30;;;;;;4965143;28;20098;-72
2022/09/28 02:29:43;;;;;;;10.70;3.17;;;21.40;66.20;;;;;;4971381;28;21300;-72
2022/09/28 02:32:09;;;;;;;8.02;2.50;;;21.40;66.30;;;;;;4971475;28;20031;-72
2022/09/28 02:34:35;;;;;;;7.55;2.47;;;21.40;66.40;;;;;;4970260;28;20050;-72
2022/09/28 02:37:02;;;;;;;10.50;2.67;;;21.40;66.50;;;;;;4970877;28;20495;-72
2022/09/28 02:39:28;;;;;;;9.10;2.90;;;21.40;66.30;;;;;;4973437;28;20066;-72
2022/09/28 02:42:06;;;;;;;7.03;2.65;;;21.40;66.40;;;;;;4970554;28;20038;-72
2022/09/28 02:44:59;;;;;;;7.22;2.97;;;21.40;66.30;;;;;;4969822;28;20045;-72
2022/09/28 02:47:45;;;;;;;7.43;3.10;;;21.40;66.00;;;;;;4954779;28;20035;-72
2022/09/28 02:50:33;;;;;;;10.45;3.17;;;21.40;66.40;;;;;;4970046;28;20042;-72
2022/09/28 02:53:26;;;;;;;9.27;3.13;;;21.40;66.30;;;;;;4976343;28;20031;-72
2022/09/28 02:55:59;;;;;;;7.78;2.80;;;21.40;66.60;;;;;;4970585;28;20167;-72
2022/09/28 02:58:42;;;;;;;10.57;2.95;;;21.40;66.70;;;;;;4975056;28;20486;-72
2022/09/28 03:01:22;;;;;;;10.20;2.83;;;21.40;66.50;;;;;;4973158;28;20058;-73
2022/09/28 03:03:56;;;;;;;8.73;3.50;;;21.30;66.30;;;;;;4969940;28;20479;-72
2022/09/28 03:06:37;;;;;;;8.40;2.72;;;21.40;66.50;;;;;;4980942;28;20046;-72
2022/09/28 03:09:18;;;;;;;7.95;2.58;;;21.40;66.30;;;;;;4974415;28;20097;-72
2022/09/28 03:12:08;;;;;;;10.05;2.80;;;21.30;66.50;;;;;;4975108;28;20022;-72
2022/09/28 03:14:34;;;;;;;8.75;2.90;;;21.30;66.40;;;;;;4961337;28;20089;-72
2022/09/28 03:17:00;;;;;;;8.18;3.17;;;21.40;66.30;;;;;;4968316;28;20406;-72
2022/09/28 03:19:32;;;;;;;14.38;3.10;;;21.40;66.50;;;;;;4958141;28;20039;-72
2022/09/28 03:21:59;;;;;;;12.18;3.08;;;21.40;66.50;;;;;;4973284;28;20039;-72
2022/09/28 03:24:26;;;;;;;9.93;3.22;;;21.40;66.60;;;;;;4972817;28;20031;-72
2022/09/28 03:26:52;;;;;;;9.38;2.67;;;21.40;66.40;;;;;;4974662;28;20023;-72
2022/09/28 03:29:19;;;;;;;12.43;3.03;;;21.40;66.40;;;;;;4957885;28;20035;-72
2022/09/28 03:31:49;;;;;;;10.18;2.97;;;21.30;66.20;;;;;;5012416;22;20049;-73
2022/09/28 03:34:15;;;;;;;9.52;3.08;;;21.40;66.30;;;;;;5020771;28;20052;-73
2022/09/28 03:36:41;;;;;;;5.90;2.80;;;21.40;66.40;;;;;;5020835;28;20390;-72
2022/09/28 03:39:07;;;;;;;10.98;2.95;;;21.40;66.20;;;;;;5047145;28;20130;-73
2022/09/28 03:41:33;;;;;;;7.88;2.50;;;21.40;66.20;;;;;;5016215;28;20529;-73
2022/09/28 03:44:00;;;;;;;9.57;2.60;;;21.40;66.10;;;;;;5034025;28;20025;-72
2022/09/28 03:46:27;;;;;;;8.80;2.65;;;21.40;66.10;;;;;;5048667;28;20437;-72
2022/09/28 03:48:58;;;;;;;5.88;2.80;;;21.40;66.40;;;;;;5016957;28;20550;-72
2022/09/28 03:51:24;;;;;;;8.50;2.67;;;21.40;66.40;;;;;;5016524;28;20022;-72
2022/09/28 03:53:52;;;;;;;7.82;2.67;;;21.40;66.50;;;;;;5026335;28;20033;-72
2022/09/28 03:56:18;;;;;;;6.32;2.60;;;21.40;66.60;;;;;;5015994;28;20381;-72
2022/09/28 03:58:44;;;;;;;5.13;2.58;;;21.40;66.50;;;;;;5016472;28;20492;-73
2022/09/28 04:01:14;;;;;;;9.07;2.70;;;21.40;66.50;;;;;;5033647;28;20041;-73
2022/09/28 04:03:41;;;;;;;7.80;2.53;;;21.40;66.50;;;;;;5033108;28;20028;-72
2022/09/28 04:06:07;;;;;;;8.38;2.80;;;21.40;66.50;;;;;;5030450;28;20087;-73
2022/09/28 04:08:36;;;;;;;7.70;2.67;;;21.40;66.50;;;;;;5015796;28;20507;-72
2022/09/28 04:11:02;;;;;;;6.97;2.80;;;21.40;66.60;;;;;;5014825;28;20021;-73
2022/09/28 04:13:29;;;;;;;13.35;3.00;;;21.30;66.30;;;;;;5012315;28;20028;-73
2022/09/28 04:15:59;;;;;;;10.07;2.88;;;21.40;66.50;;;;;;5026942;28;20023;-73
2022/09/28 04:18:27;;;;;;;9.68;2.78;;;21.40;66.40;;;;;;5048738;28;20037;-72
2022/09/28 04:21:09;;;;;;;6.78;2.97;;;21.40;67.20;;;;;;5015962;28;20112;-73
2022/09/28 04:23:40;;;;;;;8.68;2.90;;;21.40;66.90;;;;;;5048488;28;20030;-73
2022/09/28 04:26:15;;;;;;;8.00;2.95;;;21.30;66.50;;;;;;5015376;28;20445;-73
2022/09/28 04:31:28;;;;;;;9.77;2.45;;;21.30;66.20;;;;;;5022134;28;20022;-72
2022/09/28 04:33:56;;;;;;;7.70;2.80;;;21.40;66.30;;;;;;5034031;28;20552;-72
2022/09/28 04:36:23;;;;;;;7.70;2.95;;;21.40;66.50;;;;;;5022169;28;20029;-72
2022/09/28 04:38:51;;;;;;;9.88;3.47;;;21.40;66.50;;;;;;5025286;28;20477;-72
2022/09/28 04:41:18;;;;;;;6.50;2.53;;;21.30;66.60;;;;;;5026104;28;20488;-71
2022/09/28 04:43:47;;;;;;;7.85;2.80;;;21.30;66.40;;;;;;5048368;28;20037;-72
2022/09/28 04:46:14;;;;;;;;;;;21.30;67.30;;;;;;5014619;28;20082;-71
2022/09/28 04:48:51;;;;;;;8.38;2.75;;;21.30;66.60;;;;;;5014558;28;20407;-71
2022/09/28 04:51:37;;;;;;;8.90;2.97;;;21.30;66.60;;;;;;5032405;28;20429;-71
2022/09/28 04:54:03;;;;;;;15.27;2.92;;;21.30;66.70;;;;;;4999273;28;20025;-72
2022/09/28 04:56:29;;;;;;;12.27;2.97;;;21.40;66.80;;;;;;5013958;28;20059;-71
2022/09/28 04:58:55;;;;;;;11.32;2.75;;;21.40;66.30;;;;;;5014978;28;20025;-72
2022/09/28 05:01:23;;;;;;;6.90;2.97;;;21.40;66.10;;;;;;4998713;28;20045;-72
2022/09/28 05:04:23;;;;;;;10.25;3.22;;;21.30;66.30;;;;;;5032600;28;20172;-72
2022/09/28 05:07:16;;;;;;;7.60;3.05;;;21.40;66.80;;;;;;5035140;28;20107;-73
2022/09/28 05:09:42;;;;;;;6.32;2.55;;;21.30;66.60;;;;;;5014858;28;20032;-72
2022/09/28 05:12:08;;;;;;;7.80;3.15;;;21.40;66.80;;;;;;5047772;28;20029;-72
2022/09/28 05:14:34;;;;;;;10.60;2.72;;;21.30;66.30;;;;;;4998658;28;20493;-72
2022/09/28 05:17:01;;;;;;;10.50;3.67;;;21.30;66.70;;;;;;5018147;28;20021;-72
2022/09/28 05:19:27;;;;;;;8.88;3.03;;;21.30;66.30;;;;;;5032158;28;20168;-72
2022/09/28 05:22:02;;;;;;;8.23;3.30;;;21.30;66.50;;;;;;5013863;28;20105;-72
2022/09/28 05:24:30;;;;;;;8.48;2.83;;;21.30;67.60;;;;;;4998438;28;20053;-72
2022/09/28 05:26:59;;;;;;;7.10;2.92;;;21.30;66.30;;;;;;4998320;28;20040;-72
2022/09/28 05:29:25;;;;;;;6.65;3.03;;;21.30;66.50;;;;;;5030831;28;20038;-72
2022/09/28 05:32:09;;;;;;;20.02;3.00;;;21.30;67.10;;;;;;5016545;28;20068;-72
2022/09/28 05:34:45;;;;;;;11.88;3.47;;;21.30;67.10;;;;;;5026644;28;20056;-72
2022/09/28 05:37:18;;;;;;;12.68;2.80;;;21.30;67.40;;;;;;5013530;28;20025;-72
2022/09/28 05:39:45;;;;;;;15.70;3.00;;;21.30;67.40;;;;;;4987231;28;20555;-72
2022/09/28 05:42:11;;;;;;;10.10;2.55;;;21.30;66.70;;;;;;5042989;28;20041;-72
2022/09/28 05:44:37;;;;;;;12.20;2.95;;;21.30;67.30;;;;;;4998307;28;20057;-72
2022/09/28 05:47:03;;;;;;;8.07;3.10;;;21.30;66.60;;;;;;5018127;28;20053;-72
2022/09/28 05:49:31;;;;;;;6.32;2.70;;;21.20;66.70;;;;;;5014255;28;20064;-73
2022/09/28 05:51:58;;;;;;;7.35;2.90;;;21.30;67.10;;;;;;5046250;28;20032;-72
2022/09/28 05:54:24;;;;;;;6.25;2.83;;;21.30;67.10;;;;;;5031083;28;20026;-72
2022/09/28 05:56:50;;;;;;;10.13;2.88;;;21.20;66.50;;;;;;5014442;28;20029;-73
2022/09/28 05:59:15;;;;;;;7.78;2.75;;;21.30;66.80;;;;;;5030947;28;20033;-72
2022/09/28 06:01:41;;;;;;;9.73;3.45;;;21.30;66.80;;;;;;5011747;28;20025;-70
2022/09/28 06:04:10;;;;;;;8.40;3.15;;;21.20;67.80;;;;;;5023441;28;20036;-71
2022/09/28 06:06:37;;;;;;;10.98;2.95;;;21.20;66.70;;;;;;5029773;28;20033;-71
2022/09/28 06:09:03;;;;;;;9.10;3.35;;;21.20;66.70;;;;;;5029547;28;20057;-71
2022/09/28 06:11:34;;;;;;;10.60;3.40;;;21.30;66.60;;;;;;5013601;28;20535;-71
2022/09/28 06:14:12;;;;;;;9.55;3.08;;;21.30;66.80;;;;;;5025361;28;20017;-72
2022/09/28 06:16:39;;;;;;;10.13;3.20;;;21.30;66.70;;;;;;5013293;28;20032;-71
2022/09/28 06:19:07;;;;;;;8.93;3.25;;;21.30;66.90;;;;;;5015843;28;20485;-71
2022/09/28 06:21:55;;;;;;;7.27;3.10;;;21.30;66.50;;;;;;5031282;28;20389;-71
2022/09/28 06:24:21;;;;;;;11.90;3.15;;;21.30;66.90;;;;;;5029531;28;20291;-71
2022/09/28 06:26:47;;;;;;;9.75;3.40;;;21.30;66.70;;;;;;5022302;28;20025;-71
2022/09/28 06:29:17;;;;;;;6.78;2.67;;;21.40;66.30;;;;;;5017930;28;20619;-72
2022/09/28 06:31:44;;;;;;;10.18;3.13;;;21.30;66.80;;;;;;5017034;28;20684;-69
2022/09/28 06:34:11;;;;;;;9.35;3.65;;;21.40;67.30;;;;;;5047368;28;20037;-70
2022/09/28 06:36:38;;;;;;;9.05;3.03;;;21.40;67.80;;;;;;5046682;28;20026;-70
2022/09/28 06:39:05;;;;;;;12.38;3.58;;;21.50;68.10;;;;;;5014183;28;20489;-69
2022/09/28 06:41:32;;;;;;;12.65;4.00;;;21.50;69.00;;;;;;5047022;28;20083;-70
2022/09/28 06:44:02;;;;;;;11.90;4.18;;;21.60;69.60;;;;;;5047046;28;20047;-70
2022/09/28 06:46:46;;;;;;;8.73;4.20;;;21.60;70.30;;;;;;5030503;28;20085;-70
2022/09/28 06:49:18;;;;;;;15.65;4.05;;;21.60;70.20;;;;;;5027618;28;20040;-69
2022/09/28 06:52:22;;;;;;;15.15;3.92;;;21.60;68.90;;;;;;4973187;28;20038;-71
2022/09/28 06:55:05;;;;;;;10.30;3.72;;;21.60;69.80;;;;;;4970117;28;20061;-71
2022/09/28 06:57:46;;;;;;;11.13;3.45;;;21.60;69.70;;;;;;4998355;28;20458;-72
2022/09/28 07:00:12;;;;;;;13.48;4.05;;;21.60;69.60;;;;;;5030052;28;20064;-71
2022/09/28 07:02:38;;;;;;;11.15;3.95;;;21.60;69.20;;;;;;5012413;28;20486;-71
2022/09/28 07:05:40;;;;;;;12.55;4.18;;;21.60;68.70;;;;;;5017843;28;20109;-73
2022/09/28 07:08:34;;;;;;;9.63;3.72;;;21.50;68.40;;;;;;5024987;28;20069;-73
2022/09/28 07:11:20;;;;;;;19.10;3.72;;;21.50;68.00;;;;;;5027139;28;20041;-73
2022/09/28 07:14:03;;;;;;;20.88;3.53;;;21.50;67.60;;;;;;5012102;28;20321;-73
2022/09/28 07:16:30;;;;;;;18.08;4.10;;;21.50;67.40;;;;;;5002656;28;20441;-68
2022/09/28 07:18:56;;;;;;;23.92;4.20;;;21.40;67.30;;;;;;5023372;28;20064;-72
2022/09/28 07:21:21;;;;;;;25.35;4.45;;;21.40;65.60;;;;;;5027763;28;20129;-76
2022/09/28 07:23:48;;;;;;;19.33;4.30;;;21.50;65.40;;;;;;5013084;28;20033;-73
2022/09/28 07:26:22;;;;;;;15.15;4.32;;;21.50;65.70;;;;;;5031134;28;20032;-73
2022/09/28 07:28:54;;;;;;;16.90;3.70;;;21.50;65.50;;;;;;5013270;28;20132;-74
2022/09/28 07:31:36;;;;;;;14.57;4.15;;;21.50;65.70;;;;;;5013632;28;20033;-74
2022/09/28 07:34:21;;;;;;;16.83;3.85;;;21.50;66.00;;;;;;5013028;28;20108;-73
2022/09/28 07:37:17;;;;;;;26.27;4.20;;;21.50;66.20;;;;;;5031281;28;20060;-73
2022/09/28 07:42:30;;;;;;;14.35;4.00;;;21.50;66.20;;;;;;4984312;28;20041;-73
2022/09/28 07:44:57;;;;;;;15.15;3.90;;;21.50;67.20;;;;;;5016430;28;20033;-72
2022/09/28 07:47:25;;;;;;;18.73;3.88;;;21.60;67.50;;;;;;5032617;28;20033;-73
2022/09/28 07:50:17;;;;;;;33.70;4.65;;;21.50;67.70;;;;;;5010405;28;20045;-73
2022/09/28 07:52:57;;;;;;;22.45;4.22;;;21.60;68.50;;;;;;5011548;28;20076;-72
2022/09/28 07:55:54;;;;;;;30.58;4.82;;;21.70;69.90;;;;;;5012354;28;20547;-73
2022/09/28 07:58:34;;;;;;;23.17;5.50;;;21.70;68.90;;;;;;5018871;28;20371;-73
2022/09/28 08:01:20;;;;;;;21.60;4.53;;;21.60;68.50;;;;;;5022768;28;20036;-73
2022/09/28 08:03:48;;;;;;;14.98;4.47;;;21.60;68.60;;;;;;5013804;28;20032;-73
2022/09/28 08:06:15;;;;;;;18.83;4.68;;;21.50;68.90;;;;;;5017348;28;20060;-72
2022/09/28 08:08:43;;;;;;;21.10;4.63;;;21.50;68.40;;;;;;5015585;28;20021;-72
2022/09/28 08:11:16;;;;;;;21.42;5.07;;;21.60;68.20;;;;;;5037321;28;20103;-72
2022/09/28 08:14:10;;;;;;;21.90;4.75;;;21.50;68.50;;;;;;5032872;28;20021;-72
2022/09/28 08:17:01;;;;;;;17.35;4.43;;;21.50;68.70;;;;;;5016347;28;20446;-72
2022/09/28 08:22:31;;;;;;;17.48;4.43;;;21.50;68.50;;;;;;5016364;28;20037;-73
2022/09/28 08:24:57;;;;;;;16.15;4.50;;;21.50;68.90;;;;;;5015800;28;20370;-72
2022/09/28 08:27:22;;;;;;;13.30;4.38;;;21.50;68.80;;;;;;5034136;28;20040;-72
2022/09/28 08:29:48;;;;;;;13.38;3.75;;;21.50;68.70;;;;;;5016106;28;20045;-72
2022/09/28 08:32:34;;;;;;;13.32;4.15;;;21.50;68.40;;;;;;5033513;28;20072;-72
2022/09/28 08:35:26;;;;;;;13.20;3.97;;;21.50;68.80;;;;;;5017162;28;20546;-73
2022/09/28 08:38:08;;;;;;;12.52;3.88;;;21.50;68.80;;;;;;4999806;28;20037;-72
2022/09/28 08:41:15;;;;;;;12.13;4.10;;;21.50;69.00;;;;;;5033423;28;20124;-73
2022/09/28 08:44:13;;;;;;;17.05;4.28;;;21.50;68.90;;;;;;5015812;28;20625;-72
2022/09/28 08:47:02;;;;;;;11.77;3.88;;;21.50;68.60;;;;;;5025622;28;20041;-72
2022/09/28 08:49:49;;;;;;;5.75;3.00;;;21.50;68.90;;;;;;5015582;28;20032;-73
2022/09/28 08:52:45;;;;;;;10.15;3.78;;;21.40;68.60;;;;;;5033348;28;20464;-73
2022/09/28 08:55:37;;;;;;;13.35;3.95;;;21.40;69.00;;;;;;4978145;28;20042;-72
2022/09/28 08:58:12;;;;;;;13.93;3.78;;;21.40;68.70;;;;;;5015796;28;20425;-72
2022/09/28 09:00:46;;;;;;;15.32;3.83;;;21.40;68.50;;;;;;5015483;28;20470;-72
2022/09/28 09:03:19;;;;;;;9.63;4.10;;;21.40;68.70;;;;;;5032194;28;20025;-72
2022/09/28 09:06:17;;;;;;;8.50;3.80;;;21.40;68.80;;;;;;5014926;28;20056;-72
2022/09/28 09:09:06;;;;;;;9.18;3.22;;;21.40;68.50;;;;;;4999140;28;20029;-72
2022/09/28 09:12:00;;;;;;;17.25;4.15;;;21.50;68.80;;;;;;5031686;28;20056;-72
2022/09/28 09:14:56;;;;;;;9.70;3.60;;;21.50;68.80;;;;;;5033216;28;20046;-72
2022/09/28 09:17:50;;;;;;;11.82;3.55;;;21.50;68.90;;;;;;5031713;28;20027;-72
2022/09/28 09:20:56;;;;;;;10.52;3.90;;;21.60;68.70;;;;;;5028606;28;20034;-73
2022/09/28 09:23:51;;;;;;;9.18;3.45;;;21.60;68.80;;;;;;5014779;28;20041;-72
2022/09/28 09:26:20;;;;;;;9.48;3.10;;;21.50;68.40;;;;;;4998434;28;20036;-72
2022/09/28 09:29:14;;;;;;;9.13;3.20;;;21.50;68.50;;;;;;5015020;28;20067;-72
2022/09/28 09:31:45;;;;;;;;;;;21.60;68.60;;;;;;5029847;22;20303;-72
2022/09/28 09:34:50;;;;;;;9.25;3.45;;;21.50;68.40;;;;;;5032955;28;19909;-74
2022/09/28 09:38:08;;;;;;;9.80;3.63;;;21.50;69.00;;;;;;5000825;28;20042;-74
2022/09/28 09:41:14;;;;;;;;;;;21.50;68.70;;;;;;5035090;28;20023;-74
2022/09/28 09:44:25;;;;;;;9.57;3.15;;;21.50;68.60;;;;;;5015787;28;19909;-74
2022/09/28 09:47:30;;;;;;;9.35;3.40;;;21.50;68.50;;;;;;5030832;28;20554;-74
2022/09/28 09:50:12;;;;;;;7.30;3.28;;;21.50;68.50;;;;;;5026547;28;20160;-74
2022/09/28 09:52:47;;;;;;;7.82;3.25;;;21.50;68.50;;;;;;5030947;28;20033;-74
2022/09/28 09:55:25;;;;;;;9.23;3.15;;;21.50;68.50;;;;;;5030963;28;20065;-74
2022/09/28 09:58:04;;;;;;;7.25;3.00;;;21.50;68.50;;;;;;5030836;28;20038;-75
2022/09/28 10:00:42;;;;;;;9.32;3.10;;;21.50;68.50;;;;;;5030818;28;20068;-75
2022/09/28 10:03:23;;;;;;;7.03;2.95;;;21.50;68.50;;;;;;5030596;28;20036;-74
2022/09/28 10:06:23;;;;;;;8.07;2.85;;;21.50;68.60;;;;;;5029951;28;20041;-74
2022/09/28 10:09:02;;;;;;;8.32;3.40;;;21.50;68.40;;;;;;5014178;28;20511;-74
2022/09/28 10:11:42;;;;;;;13.50;3.53;;;21.50;68.60;;;;;;5028102;28;20031;-81
2022/09/28 10:14:20;;;;;;;8.38;2.45;;;21.60;68.40;;;;;;5019663;28;20026;-81
2022/09/28 10:17:02;;;;;;;8.48;1.90;;;21.10;59.90;;;;;;5022367;28;20043;-83
2022/09/28 10:20:12;;;;;;;3.67;1.90;;;20.70;54.30;;;;;;5021686;28;20061;-80
2022/09/28 10:22:56;;;;;;;6.78;1.98;;;20.30;52.20;;;;;;5001586;28;20030;-79
2022/09/28 10:25:23;;;;;;;7.32;2.08;;;20.10;50.60;;;;;;5008062;28;20128;-84
2022/09/28 10:27:51;;;;;;;6.55;2.17;;;20.10;50.90;;;;;;5009056;28;20460;-83
2022/09/28 10:30:22;;;;;;;7.15;2.28;;;20.00;49.80;;;;;;4978886;28;20025;-74
2022/09/28 10:32:52;;;;;;;6.28;2.30;;;19.70;49.10;;;;;;4993351;28;20425;-74
2022/09/28 10:35:18;;;;;;;8.68;1.73;;;19.80;50.30;;;;;;5010263;28;20026;-76
2022/09/28 10:38:04;;;;;;;7.55;1.90;;;20.10;50.90;;;;;;5009579;28;20083;-76
2022/09/28 10:40:59;;;;;;;5.15;1.83;;;20.30;51.20;;;;;;5008985;28;20106;-79
2022/09/28 10:43:38;;;;;;;6.82;2.13;;;20.50;52.30;;;;;;4993206;28;20447;-77
2022/09/28 10:46:12;;;;;;;5.97;2.30;;;20.60;53.10;;;;;;5011291;28;20540;-78
2022/09/28 10:49:03;;;;;;;6.53;2.17;;;20.70;53.40;;;;;;5011463;28;20440;-78
2022/09/28 10:51:48;;;;;;;10.98;2.13;;;20.80;53.70;;;;;;5024854;28;20022;-85
2022/09/28 10:54:25;;;;;;;13.60;6.18;;;20.90;54.20;;;;;;5018726;28;20032;-86
2022/09/28 10:56:53;;;;;;;24.08;19.27;;;20.90;54.00;;;;;;4992599;28;20558;-88
2022/09/28 10:59:30;;;;;;;29.00;22.85;;;20.80;52.30;;;;;;4988625;28;20061;-85
2022/09/28 11:02:34;;;;;;;21.50;15.70;;;20.70;52.10;;;;;;4998428;28;20406;-76
2022/09/28 11:05:06;;;;;;;18.02;13.77;;;20.70;52.20;;;;;;5007869;28;20043;-76
2022/09/28 11:07:45;;;;;;;17.13;11.30;;;20.80;52.20;;;;;;5025116;28;20398;-75
2022/09/28 11:10:25;;;;;;;20.65;12.48;;;20.80;53.50;;;;;;5007288;28;20034;-79
2022/09/28 11:12:55;;;;;;;20.13;13.18;;;20.90;53.70;;;;;;4994210;28;20316;-78
2022/09/28 11:15:29;;;;;;;22.20;12.57;;;20.90;53.80;;;;;;4988657;28;20025;-80
2022/09/28 11:18:16;;;;;;;19.42;11.40;;;21.00;54.40;;;;;;5016298;28;20140;-77
2022/09/28 11:20:42;;;;;;;20.30;11.63;;;21.00;54.70;;;;;;5015041;28;20057;-76
2022/09/28 11:23:16;;;;;;;21.05;11.23;;;21.10;55.00;;;;;;4997825;28;20060;-76
2022/09/28 11:25:53;;;;;;;17.52;10.32;;;21.10;55.20;;;;;;5015956;28;20021;-77
2022/09/28 11:28:24;;;;;;;22.52;11.73;;;21.10;55.60;;;;;;5011956;28;20034;-77
2022/09/28 11:30:54;;;;;;;18.30;10.85;;;21.10;55.60;;;;;;5013558;28;20040;-76
2022/09/28 11:33:34;;;;;;;20.20;10.32;;;21.10;55.90;;;;;;5037576;28;20394;-76
2022/09/28 11:36:47;;;;;;;17.58;10.30;;;21.10;56.40;;;;;;5031767;28;20035;-79
2022/09/28 11:39:22;;;;;;;25.40;10.65;;;21.20;56.50;;;;;;4965378;28;20046;-78
2022/09/28 11:42:22;;;;;;;25.23;11.77;;;21.20;57.60;;;;;;5015115;28;20044;-79
2022/09/28 11:44:59;;;;;;;36.63;14.85;;;21.20;58.10;;;;;;5014141;28;20532;-77
2022/09/28 11:47:56;;;;;;;49.40;20.58;;;21.20;58.70;;;;;;5014931;28;20040;-78
2022/09/28 11:50:39;;;;;;;45.92;15.85;;;21.30;60.00;;;;;;5012445;28;20137;-78
2022/09/28 11:53:04;;;;;;;;;;;21.30;58.20;;;;;;5009874;28;20091;-78
2022/09/28 11:55:48;;;;;;;35.75;15.13;;;21.30;60.10;;;;;;4997641;28;19909;-79
2022/09/28 11:58:21;;;;;;;35.08;14.15;;;21.30;60.10;;;;;;5014444;28;20029;-78
2022/09/28 12:00:53;;;;;;;30.42;13.63;;;21.30;60.10;;;;;;5013190;28;20417;-79
2022/09/28 12:03:33;;;;;;;29.08;13.18;;;21.30;60.10;;;;;;5013936;28;20520;-78
2022/09/28 12:06:08;;;;;;;25.73;12.10;;;21.30;59.90;;;;;;5014208;28;20060;-78
2022/09/28 12:08:41;;;;;;;29.25;12.75;;;21.30;59.70;;;;;;5014271;28;20059;-79
2022/09/28 12:11:42;;;;;;;21.75;11.40;;;21.30;59.60;;;;;;5016049;28;20069;-79
2022/09/28 12:14:22;;;;;;;24.65;11.52;;;21.30;59.50;;;;;;5031786;28;20033;-78
2022/09/28 12:17:02;;;;;;;25.05;11.38;;;21.30;59.50;;;;;;5013764;28;20021;-78
2022/09/28 12:19:58;;;;;;;26.23;11.32;;;21.30;59.60;;;;;;5027973;28;20120;-78
2022/09/28 12:22:43;;;;;;;27.00;11.63;;;21.30;59.50;;;;;;5019514;28;20041;-78
2022/09/28 12:25:13;;;;;;;24.13;11.52;;;21.30;59.50;;;;;;5031659;28;20025;-78
2022/09/28 12:27:49;;;;;;;28.90;10.75;;;21.30;59.00;;;;;;5031341;28;20028;-78
2022/09/28 12:30:19;;;;;;;25.38;11.13;;;21.40;60.10;;;;;;5030332;28;20474;-78
2022/09/28 12:33:03;;;;;;;27.80;11.70;;;21.40;62.00;;;;;;5012345;28;20029;-77
2022/09/28 12:36:03;;;;;;;25.08;10.52;;;21.40;61.60;;;;;;5014805;28;20036;-76
2022/09/28 12:38:40;;;;;;;26.13;10.20;;;21.40;60.70;;;;;;5013528;28;20029;-75
2022/09/28 12:41:06;;;;;;;19.73;9.50;;;21.40;60.50;;;;;;5012673;28;20041;-75
2022/09/28 12:43:59;;;;;;;22.83;10.32;;;21.40;60.40;;;;;;5013349;28;20474;-75
2022/09/28 12:46:44;;;;;;;21.85;9.43;;;21.40;60.30;;;;;;5029018;28;20032;-75
2022/09/28 12:49:22;;;;;;;19.55;8.88;;;21.40;60.20;;;;;;5012950;28;20068;-75
2022/09/28 12:51:52;;;;;;;28.85;9.43;;;21.40;60.10;;;;;;5029954;28;20041;-76
2022/09/28 12:54:33;;;;;;;23.58;9.18;;;21.40;60.20;;;;;;5014094;28;20034;-75
2022/09/28 12:57:21;;;;;;;23.40;9.40;;;21.40;60.20;;;;;;5030442;28;20055;-75
2022/09/28 12:59:56;;;;;;;14.20;7.80;;;21.40;60.20;;;;;;5012922;28;20061;-75
2022/09/28 13:02:53;;;;;;;21.65;8.20;;;21.40;60.10;;;;;;5012067;28;20477;-76
2022/09/28 13:06:03;;;;;;;17.55;8.00;;;21.40;60.10;;;;;;4989718;28;20033;-75
2022/09/28 13:08:55;;;;;;;20.92;8.68;;;21.40;60.10;;;;;;5026568;28;20045;-75
2022/09/28 13:11:45;;;;;;;17.95;7.55;;;21.40;60.00;;;;;;5029228;28;20032;-75
2022/09/28 13:14:32;;;;;;;15.15;7.80;;;21.40;60.00;;;;;;5012230;28;20029;-75
2022/09/28 13:17:32;;;;;;;19.58;7.75;;;21.40;60.10;;;;;;5021530;28;20025;-75
2022/09/28 13:20:11;;;;;;;19.88;7.45;;;21.40;60.10;;;;;;5014296;28;20029;-75
2022/09/28 13:22:55;;;;;;;14.15;6.75;;;21.40;59.90;;;;;;5028251;28;20030;-75
2022/09/28 13:25:25;;;;;;;18.20;7.30;;;21.40;59.80;;;;;;5025592;28;20155;-75
2022/09/28 13:27:59;;;;;;;16.90;7.50;;;21.40;59.90;;;;;;5028526;28;20035;-75
2022/09/28 13:30:26;;;;;;;17.38;6.93;;;21.40;60.00;;;;;;5010252;28;20112;-76
2022/09/28 13:32:59;;;;;;;17.88;7.03;;;21.40;59.90;;;;;;5028429;28;20030;-75
2022/09/28 13:35:25;;;;;;;16.67;6.65;;;21.40;60.00;;;;;;5010812;28;20053;-75
2022/09/28 13:38:21;;;;;;;18.10;7.07;;;21.40;60.00;;;;;;5011274;28;20029;-75